createdAt,value
2023-08-29T00:02:04.183Z,0.65
2023-08-29T00:04:31.332Z,0.60
2023-08-29T00:06:59.517Z,0.52
2023-08-29T00:09:26.667Z,1.00
2023-08-29T00:11:53.814Z,0.50
2023-08-29T00:14:20.999Z,0.73
2023-08-29T00:16:48.133Z,0.50
2023-08-29T00:19:16.644Z,0.68
2023-08-29T00:21:43.829Z,0.57
2023-08-29T00:24:12.010Z,0.50
2023-08-29T00:26:39.209Z,0.45
2023-08-29T00:29:06.373Z,0.50
2023-08-29T00:31:33.681Z,0.55
2023-08-29T00:34:00.853Z,0.60
2023-08-29T00:36:27.952Z,0.55
2023-08-29T00:38:57.888Z,0.60
2023-08-29T00:41:25.089Z,0.50
2023-08-29T00:43:53.223Z,0.40
2023-08-29T00:46:21.274Z,0.65
2023-08-29T00:48:48.806Z,0.50
2023-08-29T00:51:15.968Z,0.60
2023-08-29T00:53:43.074Z,0.50
2023-08-29T00:56:11.133Z,0.60
2023-08-29T00:58:38.319Z,0.57
2023-08-29T01:01:05.475Z,0.50
2023-08-29T01:03:33.866Z,0.60
2023-08-29T01:06:01.001Z,0.65
2023-08-29T01:08:28.195Z,0.63
2023-08-29T01:11:14.177Z,0.52
2023-08-29T01:14:00.289Z,0.60
2023-08-29T01:16:32.765Z,0.50
2023-08-29T01:19:00.477Z,0.55
2023-08-29T01:21:30.482Z,0.60
2023-08-29T01:24:04.153Z,0.70
2023-08-29T01:26:35.801Z,0.43
2023-08-29T01:29:03.881Z,0.60
2023-08-29T01:31:31.888Z,0.60
2023-08-29T01:33:59.818Z,0.60
2023-08-29T01:36:40.005Z,0.50
2023-08-29T01:39:06.780Z,0.60
2023-08-29T01:41:33.593Z,0.40
2023-08-29T01:44:04.493Z,0.60
2023-08-29T01:46:31.500Z,0.60
2023-08-29T01:49:01.775Z,0.50
2023-08-29T01:51:28.861Z,0.60
2023-08-29T01:53:55.865Z,0.60
2023-08-29T01:56:26.332Z,0.50
2023-08-29T01:58:55.301Z,0.80
2023-08-29T02:01:23.797Z,0.57
2023-08-29T02:03:51.114Z,0.40
2023-08-29T02:06:17.878Z,0.50
2023-08-29T02:08:45.786Z,0.50
2023-08-29T02:11:12.580Z,0.60
2023-08-29T02:13:39.338Z,0.50
2023-08-29T02:16:06.011Z,0.50
2023-08-29T02:18:32.791Z,0.55
2023-08-29T02:20:59.455Z,0.60
2023-08-29T02:23:26.555Z,0.57
2023-08-29T02:26:06.571Z,0.60
2023-08-29T02:28:37.784Z,0.60
2023-08-29T02:31:09.181Z,0.68
2023-08-29T02:33:38.527Z,0.50
2023-08-29T02:36:06.310Z,0.60
2023-08-29T02:38:33.856Z,0.95
2023-08-29T02:41:01.339Z,0.80
2023-08-29T02:43:29.226Z,0.73
2023-08-29T02:45:56.473Z,0.70
2023-08-29T02:48:25.011Z,0.70
2023-08-29T02:50:52.206Z,0.93
2023-08-29T02:53:22.524Z,0.75
2023-08-29T02:55:53.246Z,0.82
2023-08-29T02:58:20.946Z,0.80
2023-08-29T03:00:48.844Z,0.98
2023-08-29T03:03:16.496Z,0.95
2023-08-29T03:05:43.954Z,1.17
2023-08-29T03:08:11.618Z,1.02
2023-08-29T03:10:39.587Z,0.83
2023-08-29T03:13:06.797Z,0.77
2023-08-29T03:15:34.340Z,0.70
2023-08-29T03:18:01.858Z,0.80
2023-08-29T03:20:29.480Z,0.60
2023-08-29T03:22:56.736Z,0.80
2023-08-29T03:25:24.061Z,0.80
2023-08-29T03:27:52.266Z,0.55
2023-08-29T03:30:19.531Z,0.57
2023-08-29T03:32:50.675Z,0.80
2023-08-29T03:35:18.222Z,0.50
2023-08-29T03:37:45.555Z,0.75
2023-08-29T03:40:13.915Z,0.63
2023-08-29T03:42:42.722Z,0.68
2023-08-29T03:45:10.135Z,0.50
2023-08-29T03:47:39.470Z,0.50
2023-08-29T03:50:07.251Z,0.60
2023-08-29T03:52:34.476Z,0.60
2023-08-29T03:55:01.648Z,0.57
2023-08-29T03:57:28.855Z,0.95
2023-08-29T03:59:56.784Z,0.70
2023-08-29T04:02:24.034Z,0.60
2023-08-29T04:04:52.666Z,0.80
2023-08-29T04:07:20.076Z,0.60
2023-08-29T04:09:47.240Z,0.50
2023-08-29T04:12:14.447Z,0.68
2023-08-29T04:14:41.684Z,0.50
2023-08-29T04:17:08.983Z,0.50
2023-08-29T04:19:36.163Z,0.60
2023-08-29T04:22:04.205Z,0.57
2023-08-29T04:24:32.014Z,0.50
2023-08-29T04:26:59.159Z,0.50
2023-08-29T04:29:27.405Z,0.50
2023-08-29T04:31:54.579Z,0.50
2023-08-29T04:34:24.520Z,0.50
2023-08-29T04:36:52.227Z,0.60
2023-08-29T04:39:22.152Z,0.60
2023-08-29T04:41:49.277Z,0.50
2023-08-29T04:44:16.546Z,0.50
2023-08-29T04:46:43.735Z,0.63
2023-08-29T04:49:10.884Z,0.60
2023-08-29T04:51:37.992Z,0.40
2023-08-29T04:54:05.175Z,0.60
2023-08-29T04:56:32.301Z,0.70
2023-08-29T04:58:59.430Z,0.73
2023-08-29T05:01:26.813Z,0.65
2023-08-29T05:03:54.009Z,0.63
2023-08-29T05:06:21.255Z,0.60
2023-08-29T05:08:48.358Z,0.77
2023-08-29T05:11:15.450Z,0.60
2023-08-29T05:13:42.676Z,0.50
2023-08-29T05:16:09.861Z,0.40
2023-08-29T05:18:37.073Z,0.52
2023-08-29T05:21:04.711Z,0.60
2023-08-29T05:23:31.796Z,0.80
2023-08-29T05:25:58.970Z,0.50
2023-08-29T05:28:26.176Z,0.47
2023-08-29T05:30:53.330Z,0.50
2023-08-29T05:33:20.451Z,0.50
2023-08-29T05:35:47.571Z,0.60
2023-08-29T05:38:14.691Z,0.57
2023-08-29T05:40:42.345Z,0.45
2023-08-29T05:43:09.544Z,0.57
2023-08-29T05:45:36.674Z,0.50
2023-08-29T05:48:04.969Z,0.50
2023-08-29T05:50:32.580Z,0.50
2023-08-29T05:52:59.712Z,0.60
2023-08-29T05:55:26.912Z,0.80
2023-08-29T05:57:54.075Z,0.40
2023-08-29T06:00:21.757Z,0.50
2023-08-29T06:02:49.305Z,0.60
2023-08-29T06:05:16.620Z,0.68
2023-08-29T06:07:44.169Z,0.52
2023-08-29T06:10:11.306Z,0.50
2023-08-29T06:12:38.403Z,0.50
2023-08-29T06:15:05.715Z,0.43
2023-08-29T06:17:32.957Z,0.43
2023-08-29T06:20:00.097Z,0.60
2023-08-29T06:22:27.274Z,0.40
2023-08-29T06:24:55.931Z,0.60
2023-08-29T06:27:23.048Z,0.70
2023-08-29T06:29:50.168Z,0.50
2023-08-29T06:32:17.356Z,0.50
2023-08-29T06:34:44.480Z,0.60
2023-08-29T06:37:12.009Z,0.60
2023-08-29T06:39:39.116Z,0.70
2023-08-29T06:42:06.406Z,0.50
2023-08-29T06:44:33.514Z,0.47
2023-08-29T06:47:00.631Z,0.50
2023-08-29T06:49:28.035Z,0.50
2023-08-29T06:51:55.160Z,0.50
2023-08-29T06:54:22.309Z,0.60
2023-08-29T06:56:50.413Z,0.63
2023-08-29T06:59:17.803Z,0.50
2023-08-29T07:01:44.943Z,1.17
2023-08-29T07:04:12.329Z,0.52
2023-08-29T07:06:40.497Z,1.00
2023-08-29T07:09:08.484Z,0.80
2023-08-29T07:11:35.655Z,1.48
2023-08-29T07:14:02.757Z,2.22
2023-08-29T07:16:32.757Z,1.70
2023-08-29T07:19:00.093Z,2.55
2023-08-29T07:21:28.109Z,2.40
2023-08-29T07:23:55.565Z,2.03
2023-08-29T07:26:22.758Z,2.13
2023-08-29T07:28:50.109Z,1.92
2023-08-29T07:31:19.273Z,2.17
2023-08-29T07:33:46.461Z,1.70
2023-08-29T07:36:13.781Z,1.48
2023-08-29T07:38:40.879Z,1.75
2023-08-29T07:41:08.033Z,1.50
2023-08-29T07:43:35.215Z,1.45
2023-08-29T07:46:02.457Z,1.30
2023-08-29T07:48:30.208Z,1.40
2023-08-29T07:50:57.379Z,1.35
2023-08-29T07:53:24.675Z,1.40
2023-08-29T07:55:51.787Z,0.93
2023-08-29T07:58:20.713Z,1.10
2023-08-29T08:00:49.127Z,1.20
2023-08-29T08:03:16.230Z,1.00
2023-08-29T08:05:43.347Z,1.27
2023-08-29T08:08:10.541Z,1.42
2023-08-29T08:10:37.677Z,1.13
2023-08-29T08:13:05.115Z,0.95
2023-08-29T08:15:32.298Z,1.08
2023-08-29T08:17:59.449Z,1.38
2023-08-29T08:20:26.631Z,1.35
2023-08-29T08:22:53.884Z,1.50
2023-08-29T08:25:21.071Z,3.00
2023-08-29T08:27:48.216Z,1.60
2023-08-29T08:30:15.470Z,2.38
2023-08-29T08:32:42.586Z,2.45
2023-08-29T08:35:10.142Z,2.15
2023-08-29T08:37:37.501Z,2.60
2023-08-29T08:40:11.662Z,2.72
2023-08-29T08:42:42.784Z,2.35
2023-08-29T08:45:11.499Z,3.30
2023-08-29T08:47:39.764Z,2.75
2023-08-29T08:50:10.583Z,2.55
2023-08-29T08:52:39.607Z,2.53
2023-08-29T08:55:07.073Z,3.03
2023-08-29T08:57:34.275Z,2.30
2023-08-29T09:00:01.401Z,2.30
2023-08-29T09:02:29.351Z,2.55
2023-08-29T09:04:56.470Z,1.98
2023-08-29T09:07:23.596Z,2.40
2023-08-29T09:10:09.009Z,1.70
2023-08-29T09:12:36.200Z,1.30
2023-08-29T09:15:07.051Z,1.35
2023-08-29T09:17:34.243Z,1.42
2023-08-29T09:20:01.502Z,1.00
2023-08-29T09:22:28.916Z,0.95
2023-08-29T09:25:03.617Z,1.30
2023-08-29T09:27:30.974Z,0.90
2023-08-29T09:30:08.151Z,1.10
2023-08-29T09:32:35.342Z,0.85
2023-08-29T09:35:02.517Z,0.68
2023-08-29T09:37:30.942Z,1.02
2023-08-29T09:39:58.171Z,1.00
2023-08-29T09:42:25.438Z,1.45
2023-08-29T09:44:52.549Z,1.17
2023-08-29T09:47:26.745Z,0.90
2023-08-29T09:49:53.891Z,0.90
2023-08-29T09:52:22.472Z,1.00
2023-08-29T09:54:52.840Z,1.05
2023-08-29T09:57:22.579Z,0.80
2023-08-29T09:59:51.763Z,0.90
2023-08-29T10:02:22.381Z,0.82
2023-08-29T10:05:15.792Z,1.02
2023-08-29T10:07:44.330Z,1.25
2023-08-29T10:12:41.977Z,1.10
2023-08-29T10:15:09.396Z,0.90
2023-08-29T10:17:37.270Z,0.80
2023-08-29T10:20:11.087Z,0.60
2023-08-29T10:22:46.628Z,0.70
2023-08-29T10:25:15.122Z,0.90
2023-08-29T10:30:09.709Z,0.70
2023-08-29T10:32:38.735Z,0.70
2023-08-29T10:35:06.895Z,1.00
2023-08-29T10:37:34.136Z,1.40
2023-08-29T10:40:12.554Z,1.20
2023-08-29T10:42:53.411Z,0.90
2023-08-29T10:45:21.388Z,1.20
2023-08-29T10:47:48.904Z,1.15
2023-08-29T10:50:21.182Z,1.00
2023-08-29T10:52:48.523Z,1.10
2023-08-29T10:55:22.326Z,1.27
2023-08-29T10:57:50.861Z,1.20
2023-08-29T11:02:46.349Z,1.00
2023-08-29T11:05:15.333Z,1.50
2023-08-29T11:07:42.725Z,1.40
2023-08-29T11:10:12.603Z,0.98
2023-08-29T11:12:59.685Z,1.20
2023-08-29T11:15:45.825Z,1.10
2023-08-29T11:18:22.975Z,1.13
2023-08-29T11:20:50.141Z,1.48
2023-08-29T11:23:17.301Z,1.30
2023-08-29T11:25:44.431Z,1.25
2023-08-29T11:28:11.793Z,1.40
2023-08-29T11:30:43.712Z,1.60
2023-08-29T11:33:12.145Z,1.70
2023-08-29T11:35:39.260Z,0.98
2023-08-29T11:38:07.363Z,1.70
2023-08-29T11:43:52.518Z,2.03
2023-08-29T11:46:02.863Z,2.05
2023-08-29T11:48:30.891Z,1.80
2023-08-29T11:50:58.556Z,2.45
2023-08-29T11:53:29.697Z,1.90
2023-08-29T11:55:57.147Z,2.38
2023-08-29T11:58:37.254Z,2.90
2023-08-29T12:01:05.943Z,2.50
2023-08-29T12:03:35.835Z,2.13
2023-08-29T12:06:05.797Z,3.85
2023-08-29T12:08:36.308Z,3.90
2023-08-29T12:11:03.779Z,3.20
2023-08-29T12:13:30.937Z,4.40
2023-08-29T12:15:59.271Z,4.82
2023-08-29T12:18:27.221Z,4.90
2023-08-29T12:21:10.015Z,3.53
2023-08-29T12:23:37.217Z,4.78
2023-08-29T12:26:04.492Z,4.60
2023-08-29T12:28:31.699Z,4.85
2023-08-29T12:30:58.967Z,4.75
2023-08-29T12:33:26.280Z,3.70
2023-08-29T12:35:53.386Z,3.58
2023-08-29T12:38:21.389Z,2.70
2023-08-29T12:40:48.508Z,2.92
2023-08-29T12:43:18.123Z,4.13
2023-08-29T12:45:58.112Z,4.00
2023-08-29T12:48:29.003Z,4.13
2023-08-29T12:50:56.243Z,4.43
2023-08-29T12:53:23.497Z,4.25
2023-08-29T12:55:51.846Z,3.22
2023-08-29T13:00:46.544Z,5.25
2023-08-29T13:03:13.735Z,4.93
2023-08-29T13:05:43.044Z,4.13
2023-08-29T13:08:10.354Z,3.83
2023-08-29T13:10:38.094Z,4.35
2023-08-29T13:13:05.272Z,4.63
2023-08-29T13:15:48.606Z,4.15
2023-08-29T13:18:17.389Z,5.13
2023-08-29T13:20:44.637Z,4.65
2023-08-29T13:23:11.807Z,3.63
2023-08-29T13:25:38.975Z,3.53
2023-08-29T13:28:06.456Z,3.67
2023-08-29T13:30:34.260Z,3.90
2023-08-29T13:33:01.534Z,3.33
2023-08-29T13:35:28.830Z,3.47
2023-08-29T13:37:55.922Z,4.00
2023-08-29T13:40:23.032Z,4.70
2023-08-29T13:42:53.484Z,4.57
2023-08-29T13:45:21.809Z,3.83
2023-08-29T13:47:49.293Z,3.05
2023-08-29T13:50:17.585Z,3.60
2023-08-29T13:52:45.134Z,2.90
2023-08-29T13:55:12.272Z,3.20
2023-08-29T13:57:39.381Z,3.10
2023-08-29T14:00:08.569Z,3.83
2023-08-29T14:02:37.809Z,3.45
2023-08-29T14:05:05.190Z,2.80
2023-08-29T14:07:32.332Z,2.70
2023-08-29T14:09:59.434Z,1.98
2023-08-29T14:12:26.616Z,2.13
2023-08-29T14:14:53.814Z,2.50
2023-08-29T14:17:20.900Z,2.17
2023-08-29T14:19:48.079Z,1.95
2023-08-29T14:22:15.182Z,2.22
2023-08-29T14:24:42.384Z,1.70
2023-08-29T14:27:09.492Z,1.83
2023-08-29T14:29:36.588Z,1.67
2023-08-29T14:32:03.858Z,1.65
2023-08-29T14:34:31.080Z,1.90
2023-08-29T14:36:58.182Z,1.75
2023-08-29T14:39:27.308Z,2.70
2023-08-29T14:41:54.528Z,2.20
2023-08-29T14:44:21.751Z,2.00
2023-08-29T14:46:49.046Z,1.92
2023-08-29T14:49:16.711Z,1.52
2023-08-29T14:51:43.862Z,1.70
2023-08-29T14:54:11.418Z,1.90
2023-08-29T14:56:38.871Z,1.50
2023-08-29T14:59:06.676Z,2.22
2023-08-29T15:01:37.682Z,1.52
2023-08-29T15:04:07.789Z,1.55
2023-08-29T15:06:35.989Z,1.50
2023-08-29T15:09:03.356Z,1.42
2023-08-29T15:11:30.552Z,1.30
2023-08-29T15:13:57.782Z,1.42
2023-08-29T15:16:24.925Z,1.58
2023-08-29T15:18:52.130Z,1.38
2023-08-29T15:21:20.314Z,1.60
2023-08-29T15:23:47.549Z,1.50
2023-08-29T15:26:14.651Z,1.40
2023-08-29T15:28:41.820Z,1.33
2023-08-29T15:31:08.959Z,1.40
2023-08-29T15:33:36.127Z,1.70
2023-08-29T15:36:04.034Z,1.52
2023-08-29T15:38:31.146Z,1.95
2023-08-29T15:40:58.335Z,1.80
2023-08-29T15:43:26.151Z,1.45
2023-08-29T15:45:53.965Z,1.70
2023-08-29T15:48:21.254Z,1.90
2023-08-29T15:50:48.566Z,1.50
2023-08-29T15:53:16.306Z,1.67
2023-08-29T15:55:47.027Z,1.30
2023-08-29T15:58:15.501Z,1.75
2023-08-29T16:00:42.830Z,1.73
2023-08-29T16:03:10.457Z,1.60
2023-08-29T16:05:37.846Z,1.58
2023-08-29T16:08:05.903Z,1.40
2023-08-29T16:10:33.313Z,1.80
2023-08-29T16:13:00.457Z,1.90
2023-08-29T16:15:27.635Z,1.98
2023-08-29T16:17:54.862Z,1.67
2023-08-29T16:20:22.334Z,1.60
2023-08-29T16:22:49.512Z,2.00
2023-08-29T16:25:16.685Z,1.90
2023-08-29T16:27:43.976Z,1.42
2023-08-29T16:30:11.973Z,2.17
2023-08-29T16:32:41.120Z,1.50
2023-08-29T16:35:08.749Z,1.60
2023-08-29T16:37:38.250Z,1.73
2023-08-29T16:40:07.421Z,1.73
2023-08-29T16:42:34.257Z,1.50
2023-08-29T16:45:01.097Z,1.67
2023-08-29T16:47:28.339Z,1.73
2023-08-29T16:49:55.545Z,1.80
2023-08-29T16:52:22.680Z,1.55
2023-08-29T16:54:50.109Z,1.35
2023-08-29T16:57:18.185Z,1.60
2023-08-29T16:59:55.949Z,1.58
2023-08-29T17:02:24.510Z,2.47
2023-08-29T17:04:51.905Z,2.47
2023-08-29T17:07:18.673Z,2.20
2023-08-29T17:09:46.082Z,2.58
2023-08-29T17:12:20.393Z,2.00
2023-08-29T17:14:48.881Z,2.58
2023-08-29T17:19:43.501Z,2.42
2023-08-29T17:22:11.127Z,2.40
2023-08-29T17:24:38.172Z,2.20
2023-08-29T17:27:06.253Z,1.90
2023-08-29T17:29:33.068Z,1.85
2023-08-29T17:32:00.434Z,2.05
2023-08-29T17:34:27.483Z,2.00
2023-08-29T17:36:54.349Z,2.05
2023-08-29T17:39:21.122Z,1.90
2023-08-29T17:41:47.825Z,2.15
2023-08-29T17:44:14.584Z,1.60
2023-08-29T17:46:41.315Z,2.10
2023-08-29T17:49:08.088Z,1.70
2023-08-29T17:51:36.938Z,2.08
2023-08-29T17:54:03.996Z,2.53
2023-08-29T17:56:31.677Z,2.80
2023-08-29T17:58:58.932Z,3.00
2023-08-29T18:01:25.760Z,3.20
2023-08-29T18:03:52.589Z,2.95
2023-08-29T18:06:25.100Z,2.67
2023-08-29T18:08:53.784Z,2.55
2023-08-29T18:11:20.927Z,2.70
2023-08-29T18:13:47.648Z,2.20
2023-08-29T18:16:15.392Z,2.38
2023-08-29T18:18:42.314Z,1.92
2023-08-29T18:21:09.017Z,1.55
2023-08-29T18:23:36.158Z,1.50
2023-08-29T18:26:05.949Z,1.60
2023-08-29T18:28:34.302Z,2.05
2023-08-29T18:31:01.964Z,1.60
2023-08-29T18:33:29.251Z,1.60
2023-08-29T18:35:56.255Z,1.60
2023-08-29T18:38:24.502Z,1.73
2023-08-29T18:40:51.844Z,1.70
2023-08-29T18:43:18.647Z,1.75
2023-08-29T18:45:45.382Z,1.45
2023-08-29T18:48:12.499Z,1.60
2023-08-29T18:50:40.783Z,1.95
2023-08-29T18:53:07.791Z,1.98
2023-08-29T18:55:34.608Z,1.80
2023-08-29T18:58:01.278Z,1.92
2023-08-29T19:00:29.174Z,1.60
2023-08-29T19:02:57.986Z,1.85
2023-08-29T19:05:24.809Z,1.80
2023-08-29T19:07:51.538Z,1.70
2023-08-29T19:10:18.300Z,1.80
2023-08-29T19:12:47.052Z,2.08
2023-08-29T19:15:13.747Z,2.17
2023-08-29T19:17:40.792Z,1.85
2023-08-29T19:20:08.355Z,1.58
2023-08-29T19:22:35.312Z,1.90
2023-08-29T19:25:02.104Z,2.00
2023-08-29T19:27:31.401Z,1.98
2023-08-29T19:29:58.373Z,1.73
2023-08-29T19:32:27.508Z,2.00
2023-08-29T19:34:54.774Z,2.17
2023-08-29T19:37:22.569Z,2.03
2023-08-29T19:39:49.930Z,2.17
2023-08-29T19:42:17.068Z,2.25
2023-08-29T19:44:44.326Z,2.00
2023-08-29T19:47:11.544Z,1.80
2023-08-29T19:49:39.556Z,2.30
2023-08-29T19:52:07.279Z,1.85
2023-08-29T19:54:34.707Z,1.90
2023-08-29T19:57:01.891Z,2.20
2023-08-29T19:59:32.975Z,2.03
2023-08-29T20:02:00.083Z,2.10
2023-08-29T20:04:27.294Z,2.38
2023-08-29T20:06:54.473Z,2.30
2023-08-29T20:09:21.659Z,2.10
2023-08-29T20:11:48.809Z,1.85
2023-08-29T20:14:15.988Z,2.13
2023-08-29T20:16:43.138Z,2.00
2023-08-29T20:19:10.772Z,2.33
2023-08-29T20:21:37.893Z,2.30
2023-08-29T20:24:05.151Z,2.03
2023-08-29T20:26:32.544Z,2.40
2023-08-29T20:29:02.854Z,2.25
2023-08-29T20:31:30.150Z,2.10
2023-08-29T20:33:57.351Z,2.35
2023-08-29T20:36:24.460Z,2.55
2023-08-29T20:38:51.624Z,2.22
2023-08-29T20:41:18.759Z,2.40
2023-08-29T20:43:45.878Z,2.17
2023-08-29T20:46:15.715Z,2.50
2023-08-29T20:48:43.273Z,2.60
2023-08-29T20:51:10.418Z,2.65
2023-08-29T20:53:37.576Z,2.45
2023-08-29T20:56:04.949Z,2.75
2023-08-29T20:58:32.146Z,2.42
2023-08-29T21:01:00.005Z,2.55
2023-08-29T21:03:29.558Z,2.60
2023-08-29T21:05:58.172Z,2.85
2023-08-29T21:10:52.434Z,2.88
2023-08-29T21:13:19.996Z,3.50
2023-08-29T21:15:47.442Z,3.47
2023-08-29T21:18:18.097Z,2.78
2023-08-29T21:20:52.468Z,3.42
2023-08-29T21:23:20.035Z,3.78
2023-08-29T21:25:50.488Z,2.90
2023-08-29T21:28:18.136Z,3.20
2023-08-29T21:30:45.972Z,2.93
2023-08-29T21:33:13.624Z,3.40
2023-08-29T21:35:41.408Z,3.40
2023-08-29T21:38:09.466Z,3.78
2023-08-29T21:40:46.729Z,3.70
2023-08-29T21:43:19.283Z,3.85
2023-08-29T21:45:52.744Z,4.55
2023-08-29T21:48:20.257Z,3.97
2023-08-29T21:50:47.676Z,3.22
2023-08-29T21:53:15.036Z,3.70
2023-08-29T21:55:42.862Z,3.25
2023-08-29T21:58:17.331Z,3.35
2023-08-29T22:00:48.284Z,3.58
2023-08-29T22:03:15.632Z,3.92
2023-08-29T22:05:42.834Z,3.38
2023-08-29T22:08:10.321Z,3.78
2023-08-29T22:10:38.513Z,3.73
2023-08-29T22:13:05.994Z,4.10
2023-08-29T22:15:33.167Z,4.60
2023-08-29T22:18:00.293Z,4.80
2023-08-29T22:20:27.537Z,4.60
2023-08-29T22:22:55.985Z,4.50
2023-08-29T22:25:23.564Z,4.85
2023-08-29T22:27:50.726Z,5.28
2023-08-29T22:30:17.885Z,5.15
2023-08-29T22:32:45.147Z,4.90
2023-08-29T22:35:12.471Z,5.18
2023-08-29T22:37:39.676Z,5.32
2023-08-29T22:40:07.134Z,5.03
2023-08-29T22:42:34.310Z,5.65
2023-08-29T22:45:01.411Z,6.13
2023-08-29T22:47:28.589Z,6.25
2023-08-29T22:49:55.780Z,6.50
2023-08-29T22:52:24.471Z,5.63
2023-08-29T22:54:52.314Z,6.28
2023-08-29T22:57:19.520Z,6.00
2023-08-29T22:59:46.840Z,6.80
2023-08-29T23:02:14.611Z,6.30
2023-08-29T23:04:41.835Z,6.50
2023-08-29T23:07:09.652Z,5.80
2023-08-29T23:09:37.724Z,6.55
2023-08-29T23:19:00.348Z,6.90
2023-08-29T23:21:27.473Z,6.40
2023-08-29T23:23:55.378Z,6.50
2023-08-29T23:26:22.505Z,6.93
2023-08-29T23:28:49.667Z,6.97
2023-08-29T23:31:16.811Z,6.95
2023-08-29T23:33:50.950Z,6.85
2023-08-29T23:36:18.699Z,6.70
2023-08-29T23:38:46.222Z,7.00
2023-08-29T23:41:14.286Z,7.50
2023-08-29T23:43:41.399Z,7.03
2023-08-29T23:46:08.753Z,6.88
2023-08-29T23:48:35.907Z,6.97
2023-08-29T23:51:03.982Z,7.47
2023-08-29T23:53:31.285Z,7.38
2023-08-29T23:55:58.382Z,7.03
2023-08-29T23:58:25.517Z,7.40
